Terminal Aerodrome Forecast
Issued by NWS Sioux Falls, SD

Home | Current Version | Previous Version | Text Only | Print | Product List | Glossary On
Versions: 1 2 3 4 5 6 7 8 9 10 11 12 13 14 15 16 17 18 19 20
022
FTUS43 KFSD 222320
TAFFSD
TAF
KFSD 222320Z 2300/2324 15015G23KT P6SM BKN050
     FM231300 16015G23KT P6SM OVC015
     FM231700 16015G24KT P6SM OVC008=

USA.gov is the U.S. government's official web portal to all federal, state and local government web resources and services.